sensor_id;sensor_type;location;lat;lon;timestamp;temperature;humidity
14277;DHT22;7222;57.346;12.150;2023-02-13T00:00:29;5.50;99.90
14277;DHT22;7222;57.346;12.150;2023-02-13T00:02:56;5.40;99.90
14277;DHT22;7222;57.346;12.150;2023-02-13T00:05:24;5.40;99.90
14277;DHT22;7222;57.346;12.150;2023-02-13T00:07:51;5.40;99.90
14277;DHT22;7222;57.346;12.150;2023-02-13T00:10:19;5.70;99.90
14277;DHT22;7222;57.346;12.150;2023-02-13T00:12:46;5.70;99.90
14277;DHT22;7222;57.346;12.150;2023-02-13T00:15:13;5.70;99.90
14277;DHT22;7222;57.346;12.150;2023-02-13T00:17:40;5.60;99.90
14277;DHT22;7222;57.346;12.150;2023-02-13T00:20:09;5.60;99.90
14277;DHT22;7222;57.346;12.150;2023-02-13T00:22:36;5.60;99.90
14277;DHT22;7222;57.346;12.150;2023-02-13T00:25:04;5.60;99.90
14277;DHT22;7222;57.346;12.150;2023-02-13T00:27:33;5.60;99.90
14277;DHT22;7222;57.346;12.150;2023-02-13T00:30:00;5.60;99.90
14277;DHT22;7222;57.346;12.150;2023-02-13T00:32:27;5.60;99.90
14277;DHT22;7222;57.346;12.150;2023-02-13T00:34:54;5.60;99.90
14277;DHT22;7222;57.346;12.150;2023-02-13T00:37:21;5.60;99.90
14277;DHT22;7222;57.346;12.150;2023-02-13T00:39:48;5.60;99.90
14277;DHT22;7222;57.346;12.150;2023-02-13T00:42:15;5.70;99.90
14277;DHT22;7222;57.346;12.150;2023-02-13T00:44:43;5.60;99.90
14277;DHT22;7222;57.346;12.150;2023-02-13T00:47:10;5.70;99.90
14277;DHT22;7222;57.346;12.150;2023-02-13T00:49:39;5.80;99.90
14277;DHT22;7222;57.346;12.150;2023-02-13T00:52:06;5.70;99.90
14277;DHT22;7222;57.346;12.150;2023-02-13T00:54:33;5.70;99.90
14277;DHT22;7222;57.346;12.150;2023-02-13T00:57:00;5.70;99.90
14277;DHT22;7222;57.346;12.150;2023-02-13T00:59:27;5.60;99.90
14277;DHT22;7222;57.346;12.150;2023-02-13T01:01:55;5.80;99.90
14277;DHT22;7222;57.346;12.150;2023-02-13T01:04:22;5.80;99.90
14277;DHT22;7222;57.346;12.150;2023-02-13T01:06:49;5.80;99.90
14277;DHT22;7222;57.346;12.150;2023-02-13T01:09:16;5.80;99.90
14277;DHT22;7222;57.346;12.150;2023-02-13T01:11:43;5.90;99.90
14277;DHT22;7222;57.346;12.150;2023-02-13T01:14:10;5.90;99.90
14277;DHT22;7222;57.346;12.150;2023-02-13T01:16:37;5.90;99.90
14277;DHT22;7222;57.346;12.150;2023-02-13T01:19:05;5.80;99.90
14277;DHT22;7222;57.346;12.150;2023-02-13T01:21:32;5.80;99.90
14277;DHT22;7222;57.346;12.150;2023-02-13T01:24:03;5.80;99.90
14277;DHT22;7222;57.346;12.150;2023-02-13T01:26:30;5.70;99.90
14277;DHT22;7222;57.346;12.150;2023-02-13T01:28:57;5.70;99.90
14277;DHT22;7222;57.346;12.150;2023-02-13T01:31:24;5.60;99.90
14277;DHT22;7222;57.346;12.150;2023-02-13T01:33:51;5.60;99.90
14277;DHT22;7222;57.346;12.150;2023-02-13T01:36:19;5.70;99.90
14277;DHT22;7222;57.346;12.150;2023-02-13T01:38:46;5.60;99.90
14277;DHT22;7222;57.346;12.150;2023-02-13T01:41:13;5.70;99.90
14277;DHT22;7222;57.346;12.150;2023-02-13T01:43:47;5.60;99.90
14277;DHT22;7222;57.346;12.150;2023-02-13T01:46:17;5.60;99.90
14277;DHT22;7222;57.346;12.150;2023-02-13T01:48:46;5.60;99.90
14277;DHT22;7222;57.346;12.150;2023-02-13T01:51:18;5.60;99.90
14277;DHT22;7222;57.346;12.150;2023-02-13T01:53:50;5.60;99.90
14277;DHT22;7222;57.346;12.150;2023-02-13T01:56:22;5.50;99.90
14277;DHT22;7222;57.346;12.150;2023-02-13T01:58:53;5.60;99.90
14277;DHT22;7222;57.346;12.150;2023-02-13T02:01:22;5.70;99.90
14277;DHT22;7222;57.346;12.150;2023-02-13T02:03:54;5.80;99.90
14277;DHT22;7222;57.346;12.150;2023-02-13T02:06:28;5.70;99.90
14277;DHT22;7222;57.346;12.150;2023-02-13T02:09:02;5.80;99.90
14277;DHT22;7222;57.346;12.150;2023-02-13T02:11:36;5.80;99.90
14277;DHT22;7222;57.346;12.150;2023-02-13T02:14:05;5.70;99.90
14277;DHT22;7222;57.346;12.150;2023-02-13T02:16:32;5.80;99.90
14277;DHT22;7222;57.346;12.150;2023-02-13T02:19:01;5.80;99.90
14277;DHT22;7222;57.346;12.150;2023-02-13T02:21:52;5.80;99.90
14277;DHT22;7222;57.346;12.150;2023-02-13T02:25:02;5.70;99.90
14277;DHT22;7222;57.346;12.150;2023-02-13T02:28:00;5.80;99.90
14277;DHT22;7222;57.346;12.150;2023-02-13T02:31:02;5.80;99.90
14277;DHT22;7222;57.346;12.150;2023-02-13T02:33:44;5.90;99.90
14277;DHT22;7222;57.346;12.150;2023-02-13T02:36:34;5.90;99.90
14277;DHT22;7222;57.346;12.150;2023-02-13T02:39:09;5.90;99.90
14277;DHT22;7222;57.346;12.150;2023-02-13T02:41:52;5.80;99.90
14277;DHT22;7222;57.346;12.150;2023-02-13T02:44:31;5.90;99.90
14277;DHT22;7222;57.346;12.150;2023-02-13T02:47:09;5.90;99.90
14277;DHT22;7222;57.346;12.150;2023-02-13T02:50:14;5.80;99.90
14277;DHT22;7222;57.346;12.150;2023-02-13T02:52:56;5.70;99.90
14277;DHT22;7222;57.346;12.150;2023-02-13T02:55:31;5.80;99.90
14277;DHT22;7222;57.346;12.150;2023-02-13T02:58:06;5.70;99.90
14277;DHT22;7222;57.346;12.150;2023-02-13T03:00:52;5.70;99.90
14277;DHT22;7222;57.346;12.150;2023-02-13T03:03:39;5.70;99.90
14277;DHT22;7222;57.346;12.150;2023-02-13T03:06:29;5.60;99.90
14277;DHT22;7222;57.346;12.150;2023-02-13T03:09:00;5.70;99.90
14277;DHT22;7222;57.346;12.150;2023-02-13T03:11:48;5.60;99.90
14277;DHT22;7222;57.346;12.150;2023-02-13T03:14:34;5.60;99.90
14277;DHT22;7222;57.346;12.150;2023-02-13T03:17:02;5.70;99.90
14277;DHT22;7222;57.346;12.150;2023-02-13T03:19:57;5.70;99.90
14277;DHT22;7222;57.346;12.150;2023-02-13T03:22:57;5.70;99.90
14277;DHT22;7222;57.346;12.150;2023-02-13T03:25:29;5.70;99.90
14277;DHT22;7222;57.346;12.150;2023-02-13T03:28:05;5.60;99.90
14277;DHT22;7222;57.346;12.150;2023-02-13T03:30:57;5.60;99.90
14277;DHT22;7222;57.346;12.150;2023-02-13T03:33:38;5.70;99.90
14277;DHT22;7222;57.346;12.150;2023-02-13T03:36:14;5.50;99.90
14277;DHT22;7222;57.346;12.150;2023-02-13T03:39:06;5.50;99.90
14277;DHT22;7222;57.346;12.150;2023-02-13T03:41:39;5.60;99.90
14277;DHT22;7222;57.346;12.150;2023-02-13T03:44:12;5.50;99.90
14277;DHT22;7222;57.346;12.150;2023-02-13T03:46:45;5.50;99.90
14277;DHT22;7222;57.346;12.150;2023-02-13T03:49:19;5.50;99.90
14277;DHT22;7222;57.346;12.150;2023-02-13T03:52:08;5.50;99.90
14277;DHT22;7222;57.346;12.150;2023-02-13T03:54:42;5.40;99.90
14277;DHT22;7222;57.346;12.150;2023-02-13T03:57:30;5.40;99.90
14277;DHT22;7222;57.346;12.150;2023-02-13T04:00:17;5.30;99.90
14277;DHT22;7222;57.346;12.150;2023-02-13T04:02:54;5.30;99.90
14277;DHT22;7222;57.346;12.150;2023-02-13T04:05:25;5.30;99.90
14277;DHT22;7222;57.346;12.150;2023-02-13T04:07:53;5.40;99.90
14277;DHT22;7222;57.346;12.150;2023-02-13T04:10:23;5.20;99.90
14277;DHT22;7222;57.346;12.150;2023-02-13T04:12:58;5.30;99.90
14277;DHT22;7222;57.346;12.150;2023-02-13T04:15:30;5.40;99.90
14277;DHT22;7222;57.346;12.150;2023-02-13T04:18:03;5.20;99.90
14277;DHT22;7222;57.346;12.150;2023-02-13T04:20:31;5.30;99.90
14277;DHT22;7222;57.346;12.150;2023-02-13T04:23:04;5.30;99.90
14277;DHT22;7222;57.346;12.150;2023-02-13T04:25:34;5.30;99.90
14277;DHT22;7222;57.346;12.150;2023-02-13T04:28:01;5.40;99.90
14277;DHT22;7222;57.346;12.150;2023-02-13T04:30:29;5.30;99.90
14277;DHT22;7222;57.346;12.150;2023-02-13T04:32:56;5.20;99.90
14277;DHT22;7222;57.346;12.150;2023-02-13T04:35:22;5.20;99.90
14277;DHT22;7222;57.346;12.150;2023-02-13T04:37:49;5.10;99.90
14277;DHT22;7222;57.346;12.150;2023-02-13T04:40:17;5.10;99.90
14277;DHT22;7222;57.346;12.150;2023-02-13T04:42:46;5.30;99.90
14277;DHT22;7222;57.346;12.150;2023-02-13T04:45:14;5.10;99.90
14277;DHT22;7222;57.346;12.150;2023-02-13T04:47:41;5.20;99.90
14277;DHT22;7222;57.346;12.150;2023-02-13T04:50:08;5.20;99.90
14277;DHT22;7222;57.346;12.150;2023-02-13T04:52:35;5.10;99.90
14277;DHT22;7222;57.346;12.150;2023-02-13T04:55:02;5.20;99.90
14277;DHT22;7222;57.346;12.150;2023-02-13T04:57:29;5.20;99.90
14277;DHT22;7222;57.346;12.150;2023-02-13T04:59:58;5.00;99.90
14277;DHT22;7222;57.346;12.150;2023-02-13T05:02:24;5.00;99.90
14277;DHT22;7222;57.346;12.150;2023-02-13T05:04:51;5.10;99.90
14277;DHT22;7222;57.346;12.150;2023-02-13T05:07:18;5.10;99.90
14277;DHT22;7222;57.346;12.150;2023-02-13T05:09:45;5.30;99.90
14277;DHT22;7222;57.346;12.150;2023-02-13T05:12:12;5.20;99.90
14277;DHT22;7222;57.346;12.150;2023-02-13T05:14:39;5.20;99.90
14277;DHT22;7222;57.346;12.150;2023-02-13T05:17:07;5.20;99.90
14277;DHT22;7222;57.346;12.150;2023-02-13T05:19:35;5.10;99.90
14277;DHT22;7222;57.346;12.150;2023-02-13T05:22:02;5.10;99.90
14277;DHT22;7222;57.346;12.150;2023-02-13T05:24:46;5.20;99.90
14277;DHT22;7222;57.346;12.150;2023-02-13T05:27:12;5.20;99.90
14277;DHT22;7222;57.346;12.150;2023-02-13T05:29:39;5.20;99.90
14277;DHT22;7222;57.346;12.150;2023-02-13T05:32:08;5.20;99.90
14277;DHT22;7222;57.346;12.150;2023-02-13T05:34:35;5.10;99.90
14277;DHT22;7222;57.346;12.150;2023-02-13T05:37:02;5.10;99.90
14277;DHT22;7222;57.346;12.150;2023-02-13T05:39:28;5.00;99.90
14277;DHT22;7222;57.346;12.150;2023-02-13T05:41:56;5.00;99.90
14277;DHT22;7222;57.346;12.150;2023-02-13T05:44:23;5.10;99.90
14277;DHT22;7222;57.346;12.150;2023-02-13T05:46:50;5.00;99.90
14277;DHT22;7222;57.346;12.150;2023-02-13T05:49:19;5.00;99.90
14277;DHT22;7222;57.346;12.150;2023-02-13T05:51:47;5.00;99.90
14277;DHT22;7222;57.346;12.150;2023-02-13T05:54:17;5.00;99.90
14277;DHT22;7222;57.346;12.150;2023-02-13T05:56:44;4.90;99.90
14277;DHT22;7222;57.346;12.150;2023-02-13T05:59:11;5.00;99.90
14277;DHT22;7222;57.346;12.150;2023-02-13T06:01:38;5.10;99.90
14277;DHT22;7222;57.346;12.150;2023-02-13T06:04:05;5.10;99.90
14277;DHT22;7222;57.346;12.150;2023-02-13T06:06:33;5.00;99.90
14277;DHT22;7222;57.346;12.150;2023-02-13T06:09:00;5.00;99.90
14277;DHT22;7222;57.346;12.150;2023-02-13T06:11:27;5.10;99.90
14277;DHT22;7222;57.346;12.150;2023-02-13T06:13:54;5.00;99.90
14277;DHT22;7222;57.346;12.150;2023-02-13T06:16:21;5.10;99.90
14277;DHT22;7222;57.346;12.150;2023-02-13T06:18:48;4.90;99.90
14277;DHT22;7222;57.346;12.150;2023-02-13T06:21:15;4.90;99.90
14277;DHT22;7222;57.346;12.150;2023-02-13T06:23:44;4.90;99.90
14277;DHT22;7222;57.346;12.150;2023-02-13T06:26:11;4.90;99.90
14277;DHT22;7222;57.346;12.150;2023-02-13T06:28:37;5.00;99.90
14277;DHT22;7222;57.346;12.150;2023-02-13T06:31:05;4.80;99.90
14277;DHT22;7222;57.346;12.150;2023-02-13T06:33:32;4.80;99.90
14277;DHT22;7222;57.346;12.150;2023-02-13T06:35:59;4.90;99.90
14277;DHT22;7222;57.346;12.150;2023-02-13T06:38:26;4.90;99.90
14277;DHT22;7222;57.346;12.150;2023-02-13T06:40:58;4.90;99.90
14277;DHT22;7222;57.346;12.150;2023-02-13T06:43:26;4.80;99.90
14277;DHT22;7222;57.346;12.150;2023-02-13T06:45:53;4.80;99.90
14277;DHT22;7222;57.346;12.150;2023-02-13T06:48:20;4.90;99.90
14277;DHT22;7222;57.346;12.150;2023-02-13T06:50:47;4.80;99.90
14277;DHT22;7222;57.346;12.150;2023-02-13T06:53:16;4.70;99.90
14277;DHT22;7222;57.346;12.150;2023-02-13T06:55:44;4.80;99.90
14277;DHT22;7222;57.346;12.150;2023-02-13T06:58:12;4.80;99.90
14277;DHT22;7222;57.346;12.150;2023-02-13T07:00:39;4.70;99.90
14277;DHT22;7222;57.346;12.150;2023-02-13T07:03:06;4.80;99.90
14277;DHT22;7222;57.346;12.150;2023-02-13T07:05:34;4.80;99.90
14277;DHT22;7222;57.346;12.150;2023-02-13T07:08:01;4.70;99.90
14277;DHT22;7222;57.346;12.150;2023-02-13T07:10:28;4.80;99.90
14277;DHT22;7222;57.346;12.150;2023-02-13T07:12:55;4.70;99.90
14277;DHT22;7222;57.346;12.150;2023-02-13T07:15:23;4.80;99.90
14277;DHT22;7222;57.346;12.150;2023-02-13T07:17:55;4.80;99.90
14277;DHT22;7222;57.346;12.150;2023-02-13T07:20:21;4.90;99.90
14277;DHT22;7222;57.346;12.150;2023-02-13T07:22:48;5.10;99.90
14277;DHT22;7222;57.346;12.150;2023-02-13T07:25:16;4.90;99.90
14277;DHT22;7222;57.346;12.150;2023-02-13T07:27:43;5.20;99.90
14277;DHT22;7222;57.346;12.150;2023-02-13T07:30:10;5.00;99.90
14277;DHT22;7222;57.346;12.150;2023-02-13T07:32:39;5.20;99.90
14277;DHT22;7222;57.346;12.150;2023-02-13T07:35:06;5.20;99.90
14277;DHT22;7222;57.346;12.150;2023-02-13T07:37:33;5.20;99.90
14277;DHT22;7222;57.346;12.150;2023-02-13T07:40:00;5.20;99.90
14277;DHT22;7222;57.346;12.150;2023-02-13T07:42:30;5.10;99.90
14277;DHT22;7222;57.346;12.150;2023-02-13T07:44:57;5.20;99.90
14277;DHT22;7222;57.346;12.150;2023-02-13T07:47:24;5.10;99.90
14277;DHT22;7222;57.346;12.150;2023-02-13T07:49:53;5.20;99.90
14277;DHT22;7222;57.346;12.150;2023-02-13T07:52:20;5.20;99.90
14277;DHT22;7222;57.346;12.150;2023-02-13T07:54:47;5.10;99.90
14277;DHT22;7222;57.346;12.150;2023-02-13T07:57:14;5.20;99.90
14277;DHT22;7222;57.346;12.150;2023-02-13T07:59:41;5.30;99.90
14277;DHT22;7222;57.346;12.150;2023-02-13T08:02:10;5.20;99.90
14277;DHT22;7222;57.346;12.150;2023-02-13T08:04:38;5.30;99.90
14277;DHT22;7222;57.346;12.150;2023-02-13T08:07:07;5.20;99.90
14277;DHT22;7222;57.346;12.150;2023-02-13T08:09:34;5.30;99.90
14277;DHT22;7222;57.346;12.150;2023-02-13T08:12:18;5.20;99.90
14277;DHT22;7222;57.346;12.150;2023-02-13T08:14:45;5.20;99.90
14277;DHT22;7222;57.346;12.150;2023-02-13T08:17:12;5.20;99.90
14277;DHT22;7222;57.346;12.150;2023-02-13T08:19:39;5.40;99.90
14277;DHT22;7222;57.346;12.150;2023-02-13T08:22:08;5.40;99.90
14277;DHT22;7222;57.346;12.150;2023-02-13T08:24:35;5.40;99.90
14277;DHT22;7222;57.346;12.150;2023-02-13T08:27:02;5.40;99.90
14277;DHT22;7222;57.346;12.150;2023-02-13T08:29:28;5.40;99.90
14277;DHT22;7222;57.346;12.150;2023-02-13T08:31:55;5.30;99.90
14277;DHT22;7222;57.346;12.150;2023-02-13T08:34:22;5.50;99.90
14277;DHT22;7222;57.346;12.150;2023-02-13T08:36:49;5.60;99.90
14277;DHT22;7222;57.346;12.150;2023-02-13T08:39:18;5.50;99.90
14277;DHT22;7222;57.346;12.150;2023-02-13T08:41:45;5.30;99.90
14277;DHT22;7222;57.346;12.150;2023-02-13T08:44:12;5.50;99.90
14277;DHT22;7222;57.346;12.150;2023-02-13T08:46:39;5.60;99.90
14277;DHT22;7222;57.346;12.150;2023-02-13T08:49:05;5.70;99.90
14277;DHT22;7222;57.346;12.150;2023-02-13T08:51:33;5.80;99.90
14277;DHT22;7222;57.346;12.150;2023-02-13T08:54:00;5.70;99.90
14277;DHT22;7222;57.346;12.150;2023-02-13T08:56:28;5.80;99.90
14277;DHT22;7222;57.346;12.150;2023-02-13T08:58:55;5.90;99.90
14277;DHT22;7222;57.346;12.150;2023-02-13T09:01:23;5.90;99.90
14277;DHT22;7222;57.346;12.150;2023-02-13T09:03:50;6.10;99.90
14277;DHT22;7222;57.346;12.150;2023-02-13T09:06:16;6.10;99.90
14277;DHT22;7222;57.346;12.150;2023-02-13T09:08:44;6.20;99.90
14277;DHT22;7222;57.346;12.150;2023-02-13T09:11:11;6.00;99.90
14277;DHT22;7222;57.346;12.150;2023-02-13T09:13:39;6.30;99.90
14277;DHT22;7222;57.346;12.150;2023-02-13T09:16:06;6.40;99.90
14277;DHT22;7222;57.346;12.150;2023-02-13T09:18:34;6.40;99.90
14277;DHT22;7222;57.346;12.150;2023-02-13T09:21:05;6.40;99.90
14277;DHT22;7222;57.346;12.150;2023-02-13T09:23:33;6.50;99.90
14277;DHT22;7222;57.346;12.150;2023-02-13T09:26:03;6.60;99.90
14277;DHT22;7222;57.346;12.150;2023-02-13T09:28:31;6.60;99.90
14277;DHT22;7222;57.346;12.150;2023-02-13T09:31:04;6.60;99.90
14277;DHT22;7222;57.346;12.150;2023-02-13T09:33:31;6.70;99.90
14277;DHT22;7222;57.346;12.150;2023-02-13T09:35:58;6.70;99.90
14277;DHT22;7222;57.346;12.150;2023-02-13T09:38:25;6.90;99.90
14277;DHT22;7222;57.346;12.150;2023-02-13T09:40:54;6.90;99.90
14277;DHT22;7222;57.346;12.150;2023-02-13T09:43:27;7.00;99.90
14277;DHT22;7222;57.346;12.150;2023-02-13T09:46:00;7.00;99.90
14277;DHT22;7222;57.346;12.150;2023-02-13T09:48:29;7.10;99.90
14277;DHT22;7222;57.346;12.150;2023-02-13T09:50:57;7.10;99.90
14277;DHT22;7222;57.346;12.150;2023-02-13T09:53:27;7.20;99.90
14277;DHT22;7222;57.346;12.150;2023-02-13T09:56:04;7.20;99.90
14277;DHT22;7222;57.346;12.150;2023-02-13T09:58:45;7.20;99.90
14277;DHT22;7222;57.346;12.150;2023-02-13T10:01:20;7.20;99.90
14277;DHT22;7222;57.346;12.150;2023-02-13T10:04:05;7.00;99.90
14277;DHT22;7222;57.346;12.150;2023-02-13T10:06:36;7.00;99.90
14277;DHT22;7222;57.346;12.150;2023-02-13T10:09:21;7.00;99.90
14277;DHT22;7222;57.346;12.150;2023-02-13T10:12:12;7.00;99.90
14277;DHT22;7222;57.346;12.150;2023-02-13T10:14:51;7.10;99.90
14277;DHT22;7222;57.346;12.150;2023-02-13T10:17:25;7.30;99.90
14277;DHT22;7222;57.346;12.150;2023-02-13T10:19:58;7.40;99.90
14277;DHT22;7222;57.346;12.150;2023-02-13T10:22:29;7.60;99.90
14277;DHT22;7222;57.346;12.150;2023-02-13T10:25:02;7.80;99.90
14277;DHT22;7222;57.346;12.150;2023-02-13T10:27:33;7.90;99.90
14277;DHT22;7222;57.346;12.150;2023-02-13T10:30:04;7.90;99.90
14277;DHT22;7222;57.346;12.150;2023-02-13T10:32:43;8.20;99.90
14277;DHT22;7222;57.346;12.150;2023-02-13T10:35:22;8.30;99.90
14277;DHT22;7222;57.346;12.150;2023-02-13T10:37:52;8.30;99.90
14277;DHT22;7222;57.346;12.150;2023-02-13T10:40:20;8.40;99.90
14277;DHT22;7222;57.346;12.150;2023-02-13T10:42:54;9.10;99.90
14277;DHT22;7222;57.346;12.150;2023-02-13T10:45:43;9.30;99.90
14277;DHT22;7222;57.346;12.150;2023-02-13T10:48:28;9.80;99.90
14277;DHT22;7222;57.346;12.150;2023-02-13T10:51:03;10.30;99.90
14277;DHT22;7222;57.346;12.150;2023-02-13T10:53:44;9.90;99.90
14277;DHT22;7222;57.346;12.150;2023-02-13T10:56:22;10.30;99.90
14277;DHT22;7222;57.346;12.150;2023-02-13T10:59:00;10.20;99.90
14277;DHT22;7222;57.346;12.150;2023-02-13T11:01:35;10.50;99.90
14277;DHT22;7222;57.346;12.150;2023-02-13T11:04:06;11.20;99.90
14277;DHT22;7222;57.346;12.150;2023-02-13T11:06:35;12.20;99.90
14277;DHT22;7222;57.346;12.150;2023-02-13T11:09:05;11.40;99.90
14277;DHT22;7222;57.346;12.150;2023-02-13T11:11:34;12.30;99.90
14277;DHT22;7222;57.346;12.150;2023-02-13T11:14:13;12.60;99.90
14277;DHT22;7222;57.346;12.150;2023-02-13T11:16:46;13.00;99.90
14277;DHT22;7222;57.346;12.150;2023-02-13T11:19:21;12.80;99.90
14277;DHT22;7222;57.346;12.150;2023-02-13T11:21:53;12.80;99.90
14277;DHT22;7222;57.346;12.150;2023-02-13T11:24:23;12.70;99.90
14277;DHT22;7222;57.346;12.150;2023-02-13T11:26:55;13.90;99.90
14277;DHT22;7222;57.346;12.150;2023-02-13T11:29:25;14.60;99.90
14277;DHT22;7222;57.346;12.150;2023-02-13T11:34:54;14.00;99.90
14277;DHT22;7222;57.346;12.150;2023-02-13T11:37:24;12.90;99.90
14277;DHT22;7222;57.346;12.150;2023-02-13T11:39:53;13.40;99.90
14277;DHT22;7222;57.346;12.150;2023-02-13T11:42:26;13.80;99.90
14277;DHT22;7222;57.346;12.150;2023-02-13T11:45:00;14.50;99.90
14277;DHT22;7222;57.346;12.150;2023-02-13T11:47:39;13.70;99.90
14277;DHT22;7222;57.346;12.150;2023-02-13T11:50:21;14.10;99.90
14277;DHT22;7222;57.346;12.150;2023-02-13T11:52:56;14.50;99.90
14277;DHT22;7222;57.346;12.150;2023-02-13T11:55:28;14.60;99.90
14277;DHT22;7222;57.346;12.150;2023-02-13T11:57:57;13.80;99.90
14277;DHT22;7222;57.346;12.150;2023-02-13T12:00:30;12.40;99.90
14277;DHT22;7222;57.346;12.150;2023-02-13T12:03:02;12.00;99.90
14277;DHT22;7222;57.346;12.150;2023-02-13T12:06:02;11.50;99.90
14277;DHT22;7222;57.346;12.150;2023-02-13T12:08:32;10.90;99.90
14277;DHT22;7222;57.346;12.150;2023-02-13T12:10:59;10.70;99.90
14277;DHT22;7222;57.346;12.150;2023-02-13T12:13:31;11.10;99.90
14277;DHT22;7222;57.346;12.150;2023-02-13T12:16:02;11.20;99.90
14277;DHT22;7222;57.346;12.150;2023-02-13T12:18:33;10.90;99.90
14277;DHT22;7222;57.346;12.150;2023-02-13T12:21:08;11.00;99.90
14277;DHT22;7222;57.346;12.150;2023-02-13T12:23:42;11.00;99.90
14277;DHT22;7222;57.346;12.150;2023-02-13T12:26:20;10.90;99.90
14277;DHT22;7222;57.346;12.150;2023-02-13T12:29:13;10.80;99.90
14277;DHT22;7222;57.346;12.150;2023-02-13T12:31:57;10.90;99.90
14277;DHT22;7222;57.346;12.150;2023-02-13T12:34:40;11.70;99.90
14277;DHT22;7222;57.346;12.150;2023-02-13T12:37:18;13.10;99.90
14277;DHT22;7222;57.346;12.150;2023-02-13T12:39:57;13.20;99.90
14277;DHT22;7222;57.346;12.150;2023-02-13T12:42:36;12.90;99.90
14277;DHT22;7222;57.346;12.150;2023-02-13T12:45:20;12.70;99.90
14277;DHT22;7222;57.346;12.150;2023-02-13T12:48:01;12.10;99.90
14277;DHT22;7222;57.346;12.150;2023-02-13T12:50:42;11.30;99.90
14277;DHT22;7222;57.346;12.150;2023-02-13T12:53:32;11.20;99.90
14277;DHT22;7222;57.346;12.150;2023-02-13T12:56:19;11.10;99.90
14277;DHT22;7222;57.346;12.150;2023-02-13T12:58:59;10.80;99.90
14277;DHT22;7222;57.346;12.150;2023-02-13T13:04:40;10.50;99.90
14277;DHT22;7222;57.346;12.150;2023-02-13T13:07:25;10.30;99.90
14277;DHT22;7222;57.346;12.150;2023-02-13T13:10:20;10.50;99.90
14277;DHT22;7222;57.346;12.150;2023-02-13T13:12:54;10.30;99.90
14277;DHT22;7222;57.346;12.150;2023-02-13T13:15:31;10.40;99.90
14277;DHT22;7222;57.346;12.150;2023-02-13T13:18:09;10.20;99.90
14277;DHT22;7222;57.346;12.150;2023-02-13T13:20:53;10.20;99.90
14277;DHT22;7222;57.346;12.150;2023-02-13T13:23:26;10.00;99.90
14277;DHT22;7222;57.346;12.150;2023-02-13T13:26:03;9.90;99.90
14277;DHT22;7222;57.346;12.150;2023-02-13T13:28:36;9.80;99.90
14277;DHT22;7222;57.346;12.150;2023-02-13T13:31:04;9.70;99.90
14277;DHT22;7222;57.346;12.150;2023-02-13T13:33:32;10.20;99.90
14277;DHT22;7222;57.346;12.150;2023-02-13T13:36:04;10.80;99.90
14277;DHT22;7222;57.346;12.150;2023-02-13T13:38:44;10.70;99.90
14277;DHT22;7222;57.346;12.150;2023-02-13T13:41:22;10.30;99.90
14277;DHT22;7222;57.346;12.150;2023-02-13T13:44:02;10.30;99.90
14277;DHT22;7222;57.346;12.150;2023-02-13T13:46:35;10.20;99.90
14277;DHT22;7222;57.346;12.150;2023-02-13T13:49:26;9.90;99.90
14277;DHT22;7222;57.346;12.150;2023-02-13T13:52:08;9.80;99.90
14277;DHT22;7222;57.346;12.150;2023-02-13T13:54:36;9.70;99.90
14277;DHT22;7222;57.346;12.150;2023-02-13T13:57:06;10.20;99.90
14277;DHT22;7222;57.346;12.150;2023-02-13T13:59:56;10.20;99.90
14277;DHT22;7222;57.346;12.150;2023-02-13T14:02:41;10.70;99.90
14277;DHT22;7222;57.346;12.150;2023-02-13T14:05:29;11.30;99.90
14277;DHT22;7222;57.346;12.150;2023-02-13T14:07:58;11.80;99.90
14277;DHT22;7222;57.346;12.150;2023-02-13T14:13:32;13.90;99.90
14277;DHT22;7222;57.346;12.150;2023-02-13T14:15:59;13.60;99.90
14277;DHT22;7222;57.346;12.150;2023-02-13T14:18:27;13.20;99.90
14277;DHT22;7222;57.346;12.150;2023-02-13T14:20:57;14.40;99.90
14277;DHT22;7222;57.346;12.150;2023-02-13T14:23:29;14.30;99.90
14277;DHT22;7222;57.346;12.150;2023-02-13T14:26:12;14.30;99.90
14277;DHT22;7222;57.346;12.150;2023-02-13T14:28:57;14.60;99.90
14277;DHT22;7222;57.346;12.150;2023-02-13T14:31:26;14.20;99.90
14277;DHT22;7222;57.346;12.150;2023-02-13T14:33:55;14.40;99.90
14277;DHT22;7222;57.346;12.150;2023-02-13T14:36:27;14.30;99.90
14277;DHT22;7222;57.346;12.150;2023-02-13T14:38:59;14.70;99.90
14277;DHT22;7222;57.346;12.150;2023-02-13T14:41:44;13.60;99.90
14277;DHT22;7222;57.346;12.150;2023-02-13T14:44:25;13.40;99.90
14277;DHT22;7222;57.346;12.150;2023-02-13T14:46:55;12.80;99.90
14277;DHT22;7222;57.346;12.150;2023-02-13T14:49:25;12.20;99.90
14277;DHT22;7222;57.346;12.150;2023-02-13T14:51:55;11.50;99.90
14277;DHT22;7222;57.346;12.150;2023-02-13T14:54:28;11.40;99.90
14277;DHT22;7222;57.346;12.150;2023-02-13T14:57:04;11.00;99.90
14277;DHT22;7222;57.346;12.150;2023-02-13T14:59:35;11.20;99.90
14277;DHT22;7222;57.346;12.150;2023-02-13T15:02:13;11.30;99.90
14277;DHT22;7222;57.346;12.150;2023-02-13T15:04:43;10.80;99.90
14277;DHT22;7222;57.346;12.150;2023-02-13T15:07:15;10.30;99.90
14277;DHT22;7222;57.346;12.150;2023-02-13T15:09:47;10.40;99.90
14277;DHT22;7222;57.346;12.150;2023-02-13T15:12:29;10.40;99.90
14277;DHT22;7222;57.346;12.150;2023-02-13T15:14:59;10.00;99.90
14277;DHT22;7222;57.346;12.150;2023-02-13T15:17:28;10.00;99.90
14277;DHT22;7222;57.346;12.150;2023-02-13T15:20:03;9.60;99.90
14277;DHT22;7222;57.346;12.150;2023-02-13T15:22:35;9.10;99.90
14277;DHT22;7222;57.346;12.150;2023-02-13T15:25:03;9.10;99.90
14277;DHT22;7222;57.346;12.150;2023-02-13T15:27:34;9.10;99.90
14277;DHT22;7222;57.346;12.150;2023-02-13T15:30:18;8.90;99.90
14277;DHT22;7222;57.346;12.150;2023-02-13T15:32:52;8.60;99.90
14277;DHT22;7222;57.346;12.150;2023-02-13T15:35:25;8.80;99.90
14277;DHT22;7222;57.346;12.150;2023-02-13T15:37:52;8.40;99.90
14277;DHT22;7222;57.346;12.150;2023-02-13T15:40:23;8.40;99.90
14277;DHT22;7222;57.346;12.150;2023-02-13T15:42:51;8.60;99.90
14277;DHT22;7222;57.346;12.150;2023-02-13T15:45:22;8.40;99.90
14277;DHT22;7222;57.346;12.150;2023-02-13T15:47:51;8.40;99.90
14277;DHT22;7222;57.346;12.150;2023-02-13T15:50:26;8.10;99.90
14277;DHT22;7222;57.346;12.150;2023-02-13T15:52:54;8.30;99.90
14277;DHT22;7222;57.346;12.150;2023-02-13T15:55:23;8.10;99.90
14277;DHT22;7222;57.346;12.150;2023-02-13T15:57:52;8.00;99.90
14277;DHT22;7222;57.346;12.150;2023-02-13T16:00:23;8.00;99.90
14277;DHT22;7222;57.346;12.150;2023-02-13T16:02:53;7.90;99.90
14277;DHT22;7222;57.346;12.150;2023-02-13T16:05:20;7.70;99.90
14277;DHT22;7222;57.346;12.150;2023-02-13T16:07:48;7.60;99.90
14277;DHT22;7222;57.346;12.150;2023-02-13T16:10:22;7.70;99.90
14277;DHT22;7222;57.346;12.150;2023-02-13T16:12:52;7.50;99.90
14277;DHT22;7222;57.346;12.150;2023-02-13T16:15:22;7.30;99.90
14277;DHT22;7222;57.346;12.150;2023-02-13T16:17:52;7.30;99.90
14277;DHT22;7222;57.346;12.150;2023-02-13T16:20:21;7.10;99.90
14277;DHT22;7222;57.346;12.150;2023-02-13T16:22:51;7.00;99.90